sensor_id;sensor_type;location;lat;lon;timestamp;temperature;humidity
18291;DHT22;9271;48.590;8.866;2023-07-20T00:01:14;20.30;72.10
18291;DHT22;9271;48.590;8.866;2023-07-20T00:03:41;20.40;68.20
18291;DHT22;9271;48.590;8.866;2023-07-20T00:06:07;20.30;68.60
18291;DHT22;9271;48.590;8.866;2023-07-20T00:08:36;20.20;71.50
18291;DHT22;9271;48.590;8.866;2023-07-20T00:11:02;20.20;72.10
18291;DHT22;9271;48.590;8.866;2023-07-20T00:13:29;20.10;73.20
18291;DHT22;9271;48.590;8.866;2023-07-20T00:15:56;19.90;75.40
18291;DHT22;9271;48.590;8.866;2023-07-20T00:18:22;19.90;74.80
18291;DHT22;9271;48.590;8.866;2023-07-20T00:20:49;19.90;73.70
18291;DHT22;9271;48.590;8.866;2023-07-20T00:23:16;19.70;74.60
18291;DHT22;9271;48.590;8.866;2023-07-20T00:25:44;19.80;74.20
18291;DHT22;9271;48.590;8.866;2023-07-20T00:28:11;19.70;74.10
18291;DHT22;9271;48.590;8.866;2023-07-20T00:30:38;19.70;74.80
18291;DHT22;9271;48.590;8.866;2023-07-20T00:33:04;19.70;74.60
18291;DHT22;9271;48.590;8.866;2023-07-20T00:35:31;19.70;75.10
18291;DHT22;9271;48.590;8.866;2023-07-20T00:37:58;19.60;74.80
18291;DHT22;9271;48.590;8.866;2023-07-20T00:40:25;19.40;75.10
18291;DHT22;9271;48.590;8.866;2023-07-20T00:42:53;19.50;74.90
18291;DHT22;9271;48.590;8.866;2023-07-20T00:45:19;19.60;73.80
18291;DHT22;9271;48.590;8.866;2023-07-20T00:47:46;19.50;74.10
18291;DHT22;9271;48.590;8.866;2023-07-20T00:50:13;19.50;74.90
18291;DHT22;9271;48.590;8.866;2023-07-20T00:52:39;19.50;75.60
18291;DHT22;9271;48.590;8.866;2023-07-20T00:55:07;19.30;75.80
18291;DHT22;9271;48.590;8.866;2023-07-20T00:57:35;19.20;76.80
18291;DHT22;9271;48.590;8.866;2023-07-20T01:00:04;19.00;76.70
18291;DHT22;9271;48.590;8.866;2023-07-20T01:02:32;19.10;77.10
18291;DHT22;9271;48.590;8.866;2023-07-20T01:04:59;19.20;76.90
18291;DHT22;9271;48.590;8.866;2023-07-20T01:07:31;19.10;77.40
18291;DHT22;9271;48.590;8.866;2023-07-20T01:10:05;19.30;75.30
18291;DHT22;9271;48.590;8.866;2023-07-20T01:12:39;19.40;77.10
18291;DHT22;9271;48.590;8.866;2023-07-20T01:15:08;19.30;77.40
18291;DHT22;9271;48.590;8.866;2023-07-20T01:17:36;19.10;77.90
18291;DHT22;9271;48.590;8.866;2023-07-20T01:20:03;19.10;78.30
18291;DHT22;9271;48.590;8.866;2023-07-20T01:22:47;19.00;78.50
18291;DHT22;9271;48.590;8.866;2023-07-20T01:25:28;19.00;78.50
18291;DHT22;9271;48.590;8.866;2023-07-20T01:28:23;18.80;79.10
18291;DHT22;9271;48.590;8.866;2023-07-20T01:30:57;18.80;78.70
18291;DHT22;9271;48.590;8.866;2023-07-20T01:33:28;18.80;78.90
18291;DHT22;9271;48.590;8.866;2023-07-20T01:35:58;18.70;79.30
18291;DHT22;9271;48.590;8.866;2023-07-20T01:38:25;18.80;79.10
18291;DHT22;9271;48.590;8.866;2023-07-20T01:40:52;18.80;79.50
18291;DHT22;9271;48.590;8.866;2023-07-20T01:43:19;18.90;78.80
18291;DHT22;9271;48.590;8.866;2023-07-20T01:45:45;18.90;79.50
18291;DHT22;9271;48.590;8.866;2023-07-20T01:48:12;18.80;79.10
18291;DHT22;9271;48.590;8.866;2023-07-20T01:50:40;18.60;78.90
18291;DHT22;9271;48.590;8.866;2023-07-20T01:53:07;18.50;78.90
18291;DHT22;9271;48.590;8.866;2023-07-20T01:55:33;18.10;80.30
18291;DHT22;9271;48.590;8.866;2023-07-20T01:58:00;17.70;82.70
18291;DHT22;9271;48.590;8.866;2023-07-20T02:00:27;17.80;83.30
18291;DHT22;9271;48.590;8.866;2023-07-20T02:02:54;18.00;83.40
18291;DHT22;9271;48.590;8.866;2023-07-20T02:05:20;18.20;83.50
18291;DHT22;9271;48.590;8.866;2023-07-20T02:07:48;18.20;83.60
18291;DHT22;9271;48.590;8.866;2023-07-20T02:10:15;18.20;83.20
18291;DHT22;9271;48.590;8.866;2023-07-20T02:12:42;18.30;83.40
18291;DHT22;9271;48.590;8.866;2023-07-20T02:15:10;18.30;83.40
18291;DHT22;9271;48.590;8.866;2023-07-20T02:17:36;18.30;82.30
18291;DHT22;9271;48.590;8.866;2023-07-20T02:20:04;18.30;83.00
18291;DHT22;9271;48.590;8.866;2023-07-20T02:22:34;18.20;83.20
18291;DHT22;9271;48.590;8.866;2023-07-20T02:25:02;18.10;84.80
18291;DHT22;9271;48.590;8.866;2023-07-20T02:27:29;18.00;85.60
18291;DHT22;9271;48.590;8.866;2023-07-20T02:29:56;18.20;85.60
18291;DHT22;9271;48.590;8.866;2023-07-20T02:32:23;18.10;83.70
18291;DHT22;9271;48.590;8.866;2023-07-20T02:34:49;18.10;83.90
18291;DHT22;9271;48.590;8.866;2023-07-20T02:37:16;18.10;83.60
18291;DHT22;9271;48.590;8.866;2023-07-20T02:39:43;17.90;84.80
18291;DHT22;9271;48.590;8.866;2023-07-20T02:42:11;18.00;86.10
18291;DHT22;9271;48.590;8.866;2023-07-20T02:44:38;17.90;86.20
18291;DHT22;9271;48.590;8.866;2023-07-20T02:47:06;18.00;86.60
18291;DHT22;9271;48.590;8.866;2023-07-20T02:49:32;17.80;88.00
18291;DHT22;9271;48.590;8.866;2023-07-20T02:51:59;17.70;88.60
18291;DHT22;9271;48.590;8.866;2023-07-20T02:54:26;17.80;88.40
18291;DHT22;9271;48.590;8.866;2023-07-20T02:56:52;17.80;88.40
18291;DHT22;9271;48.590;8.866;2023-07-20T02:59:21;17.70;89.00
18291;DHT22;9271;48.590;8.866;2023-07-20T03:01:48;17.70;89.90
18291;DHT22;9271;48.590;8.866;2023-07-20T03:04:15;17.60;90.00
18291;DHT22;9271;48.590;8.866;2023-07-20T03:06:41;17.80;89.40
18291;DHT22;9271;48.590;8.866;2023-07-20T03:09:08;17.80;89.30
18291;DHT22;9271;48.590;8.866;2023-07-20T03:11:35;17.60;90.10
18291;DHT22;9271;48.590;8.866;2023-07-20T03:14:01;17.70;90.30
18291;DHT22;9271;48.590;8.866;2023-07-20T03:16:29;17.50;90.70
18291;DHT22;9271;48.590;8.866;2023-07-20T03:18:58;17.50;90.90
18291;DHT22;9271;48.590;8.866;2023-07-20T03:21:25;17.40;91.20
18291;DHT22;9271;48.590;8.866;2023-07-20T03:23:51;17.30;91.70
18291;DHT22;9271;48.590;8.866;2023-07-20T03:26:19;17.30;91.90
18291;DHT22;9271;48.590;8.866;2023-07-20T03:28:46;17.30;92.10
18291;DHT22;9271;48.590;8.866;2023-07-20T03:31:13;17.30;92.50
18291;DHT22;9271;48.590;8.866;2023-07-20T03:33:41;17.30;92.20
18291;DHT22;9271;48.590;8.866;2023-07-20T03:36:08;17.50;92.20
18291;DHT22;9271;48.590;8.866;2023-07-20T03:38:35;17.40;92.50
18291;DHT22;9271;48.590;8.866;2023-07-20T03:41:02;17.30;93.00
18291;DHT22;9271;48.590;8.866;2023-07-20T03:43:29;17.30;93.00
18291;DHT22;9271;48.590;8.866;2023-07-20T03:45:55;17.40;92.80
18291;DHT22;9271;48.590;8.866;2023-07-20T03:48:23;17.50;92.60
18291;DHT22;9271;48.590;8.866;2023-07-20T03:50:54;17.60;92.30
18291;DHT22;9271;48.590;8.866;2023-07-20T03:53:21;17.60;93.20
18291;DHT22;9271;48.590;8.866;2023-07-20T03:55:49;17.60;93.10
18291;DHT22;9271;48.590;8.866;2023-07-20T03:58:16;17.60;93.50
18291;DHT22;9271;48.590;8.866;2023-07-20T04:00:44;17.70;93.20
18291;DHT22;9271;48.590;8.866;2023-07-20T04:03:11;17.80;93.30
18291;DHT22;9271;48.590;8.866;2023-07-20T04:05:38;17.90;93.20
18291;DHT22;9271;48.590;8.866;2023-07-20T04:08:06;17.90;93.00
18291;DHT22;9271;48.590;8.866;2023-07-20T04:10:32;18.00;93.00
18291;DHT22;9271;48.590;8.866;2023-07-20T04:13:00;18.20;92.90
18291;DHT22;9271;48.590;8.866;2023-07-20T04:15:27;18.40;92.90
18291;DHT22;9271;48.590;8.866;2023-07-20T04:17:53;18.40;92.60
18291;DHT22;9271;48.590;8.866;2023-07-20T04:20:21;18.50;92.70
18291;DHT22;9271;48.590;8.866;2023-07-20T04:22:48;18.50;92.80
18291;DHT22;9271;48.590;8.866;2023-07-20T04:25:16;18.60;92.60
18291;DHT22;9271;48.590;8.866;2023-07-20T04:27:43;18.80;92.60
18291;DHT22;9271;48.590;8.866;2023-07-20T04:30:11;18.90;92.00
18291;DHT22;9271;48.590;8.866;2023-07-20T04:32:38;18.90;92.10
18291;DHT22;9271;48.590;8.866;2023-07-20T04:35:16;18.90;92.20
18291;DHT22;9271;48.590;8.866;2023-07-20T04:37:43;19.20;92.00
18291;DHT22;9271;48.590;8.866;2023-07-20T04:40:12;19.20;92.20
18291;DHT22;9271;48.590;8.866;2023-07-20T04:42:40;19.30;91.80
18291;DHT22;9271;48.590;8.866;2023-07-20T04:45:07;19.40;91.60
18291;DHT22;9271;48.590;8.866;2023-07-20T04:47:34;19.60;91.50
18291;DHT22;9271;48.590;8.866;2023-07-20T04:50:01;19.70;91.10
18291;DHT22;9271;48.590;8.866;2023-07-20T04:52:27;19.80;90.80
18291;DHT22;9271;48.590;8.866;2023-07-20T04:54:54;19.90;91.00
18291;DHT22;9271;48.590;8.866;2023-07-20T04:57:23;20.00;91.10
18291;DHT22;9271;48.590;8.866;2023-07-20T04:59:51;20.10;90.70
18291;DHT22;9271;48.590;8.866;2023-07-20T05:02:18;20.20;89.60
18291;DHT22;9271;48.590;8.866;2023-07-20T05:04:45;20.20;89.00
18291;DHT22;9271;48.590;8.866;2023-07-20T05:07:11;20.40;87.80
18291;DHT22;9271;48.590;8.866;2023-07-20T05:09:38;20.20;89.80
18291;DHT22;9271;48.590;8.866;2023-07-20T05:12:06;20.70;90.10
18291;DHT22;9271;48.590;8.866;2023-07-20T05:14:33;21.10;88.90
18291;DHT22;9271;48.590;8.866;2023-07-20T05:17:01;21.50;88.20
18291;DHT22;9271;48.590;8.866;2023-07-20T05:19:27;21.60;87.30
18291;DHT22;9271;48.590;8.866;2023-07-20T05:21:54;21.70;87.30
18291;DHT22;9271;48.590;8.866;2023-07-20T05:24:21;21.80;88.00
18291;DHT22;9271;48.590;8.866;2023-07-20T05:26:48;22.00;86.70
18291;DHT22;9271;48.590;8.866;2023-07-20T05:29:14;22.10;86.10
18291;DHT22;9271;48.590;8.866;2023-07-20T05:31:41;20.90;88.60
18291;DHT22;9271;48.590;8.866;2023-07-20T05:34:09;20.90;90.20
18291;DHT22;9271;48.590;8.866;2023-07-20T05:36:35;21.40;90.00
18291;DHT22;9271;48.590;8.866;2023-07-20T05:39:03;21.40;90.10
18291;DHT22;9271;48.590;8.866;2023-07-20T05:41:29;21.40;89.20
18291;DHT22;9271;48.590;8.866;2023-07-20T05:43:56;21.40;88.80
18291;DHT22;9271;48.590;8.866;2023-07-20T05:46:23;21.50;88.40
18291;DHT22;9271;48.590;8.866;2023-07-20T05:48:50;21.50;88.80
18291;DHT22;9271;48.590;8.866;2023-07-20T05:51:17;21.70;88.20
18291;DHT22;9271;48.590;8.866;2023-07-20T05:53:44;21.80;87.80
18291;DHT22;9271;48.590;8.866;2023-07-20T05:56:11;22.10;86.40
18291;DHT22;9271;48.590;8.866;2023-07-20T05:58:37;22.50;84.90
18291;DHT22;9271;48.590;8.866;2023-07-20T06:01:04;22.60;85.50
18291;DHT22;9271;48.590;8.866;2023-07-20T06:03:32;22.70;84.70
18291;DHT22;9271;48.590;8.866;2023-07-20T06:05:59;22.60;85.30
18291;DHT22;9271;48.590;8.866;2023-07-20T06:08:27;22.60;84.10
18291;DHT22;9271;48.590;8.866;2023-07-20T06:10:54;22.50;85.20
18291;DHT22;9271;48.590;8.866;2023-07-20T06:13:21;22.40;87.00
18291;DHT22;9271;48.590;8.866;2023-07-20T06:15:48;22.60;84.70
18291;DHT22;9271;48.590;8.866;2023-07-20T06:18:15;22.50;84.60
18291;DHT22;9271;48.590;8.866;2023-07-20T06:20:41;22.70;84.50
18291;DHT22;9271;48.590;8.866;2023-07-20T06:23:08;22.90;84.00
18291;DHT22;9271;48.590;8.866;2023-07-20T06:25:37;23.10;82.30
18291;DHT22;9271;48.590;8.866;2023-07-20T06:28:03;23.20;81.10
18291;DHT22;9271;48.590;8.866;2023-07-20T06:30:30;23.80;81.50
18291;DHT22;9271;48.590;8.866;2023-07-20T06:32:57;23.90;77.30
18291;DHT22;9271;48.590;8.866;2023-07-20T06:35:23;24.20;78.50
18291;DHT22;9271;48.590;8.866;2023-07-20T06:37:50;23.90;78.10
18291;DHT22;9271;48.590;8.866;2023-07-20T06:40:17;24.00;77.00
18291;DHT22;9271;48.590;8.866;2023-07-20T06:42:45;22.70;78.00
18291;DHT22;9271;48.590;8.866;2023-07-20T06:45:11;22.00;80.90
18291;DHT22;9271;48.590;8.866;2023-07-20T06:47:38;22.00;81.80
18291;DHT22;9271;48.590;8.866;2023-07-20T06:50:06;22.50;81.20
18291;DHT22;9271;48.590;8.866;2023-07-20T06:52:33;22.30;80.20
18291;DHT22;9271;48.590;8.866;2023-07-20T06:54:59;22.30;80.60
18291;DHT22;9271;48.590;8.866;2023-07-20T06:57:26;23.10;80.60
18291;DHT22;9271;48.590;8.866;2023-07-20T06:59:54;23.60;76.50
18291;DHT22;9271;48.590;8.866;2023-07-20T07:02:21;23.50;76.40
18291;DHT22;9271;48.590;8.866;2023-07-20T07:04:47;22.90;78.10
18291;DHT22;9271;48.590;8.866;2023-07-20T07:07:14;22.40;79.10
18291;DHT22;9271;48.590;8.866;2023-07-20T07:09:41;22.40;80.30
18291;DHT22;9271;48.590;8.866;2023-07-20T07:12:08;22.60;79.30
18291;DHT22;9271;48.590;8.866;2023-07-20T07:14:35;23.20;77.40
18291;DHT22;9271;48.590;8.866;2023-07-20T07:17:03;23.60;79.30
18291;DHT22;9271;48.590;8.866;2023-07-20T07:19:30;24.00;76.40
18291;DHT22;9271;48.590;8.866;2023-07-20T07:21:57;23.90;74.40
18291;DHT22;9271;48.590;8.866;2023-07-20T07:24:23;23.40;76.40
18291;DHT22;9271;48.590;8.866;2023-07-20T07:26:50;23.30;77.40
18291;DHT22;9271;48.590;8.866;2023-07-20T07:29:17;23.20;78.00
18291;DHT22;9271;48.590;8.866;2023-07-20T07:31:43;23.90;77.70
18291;DHT22;9271;48.590;8.866;2023-07-20T07:34:11;24.70;74.10
18291;DHT22;9271;48.590;8.866;2023-07-20T07:36:38;24.90;73.90
18291;DHT22;9271;48.590;8.866;2023-07-20T07:39:05;25.50;70.80
18291;DHT22;9271;48.590;8.866;2023-07-20T07:41:31;26.40;69.70
18291;DHT22;9271;48.590;8.866;2023-07-20T07:43:58;26.50;67.40
18291;DHT22;9271;48.590;8.866;2023-07-20T07:46:25;26.20;65.80
18291;DHT22;9271;48.590;8.866;2023-07-20T07:48:51;24.80;69.60
18291;DHT22;9271;48.590;8.866;2023-07-20T07:51:19;25.40;68.00
18291;DHT22;9271;48.590;8.866;2023-07-20T07:53:46;25.00;68.20
18291;DHT22;9271;48.590;8.866;2023-07-20T07:56:14;25.50;67.20
18291;DHT22;9271;48.590;8.866;2023-07-20T07:58:42;26.00;66.20
18291;DHT22;9271;48.590;8.866;2023-07-20T08:01:08;27.20;63.10
18291;DHT22;9271;48.590;8.866;2023-07-20T08:03:35;28.80;59.70
18291;DHT22;9271;48.590;8.866;2023-07-20T08:06:02;29.00;56.60
18291;DHT22;9271;48.590;8.866;2023-07-20T08:08:31;27.90;57.50
18291;DHT22;9271;48.590;8.866;2023-07-20T08:10:58;27.70;57.60
18291;DHT22;9271;48.590;8.866;2023-07-20T08:13:25;28.90;56.40
18291;DHT22;9271;48.590;8.866;2023-07-20T08:15:52;29.80;53.10
18291;DHT22;9271;48.590;8.866;2023-07-20T08:18:19;29.40;54.10
18291;DHT22;9271;48.590;8.866;2023-07-20T08:20:47;27.40;56.40
18291;DHT22;9271;48.590;8.866;2023-07-20T08:23:14;25.60;60.30
18291;DHT22;9271;48.590;8.866;2023-07-20T08:25:43;26.10;61.40
18291;DHT22;9271;48.590;8.866;2023-07-20T08:28:10;26.90;58.80
18291;DHT22;9271;48.590;8.866;2023-07-20T08:30:41;26.00;60.60
18291;DHT22;9271;48.590;8.866;2023-07-20T08:33:09;25.20;62.00
18291;DHT22;9271;48.590;8.866;2023-07-20T08:35:36;25.00;63.40
18291;DHT22;9271;48.590;8.866;2023-07-20T08:38:02;25.20;64.80
18291;DHT22;9271;48.590;8.866;2023-07-20T08:40:30;25.80;60.50
18291;DHT22;9271;48.590;8.866;2023-07-20T08:42:58;26.90;57.90
18291;DHT22;9271;48.590;8.866;2023-07-20T08:45:26;27.60;58.30
18291;DHT22;9271;48.590;8.866;2023-07-20T08:47:54;29.20;56.70
18291;DHT22;9271;48.590;8.866;2023-07-20T08:50:22;29.60;51.90
18291;DHT22;9271;48.590;8.866;2023-07-20T08:52:51;28.90;58.90
18291;DHT22;9271;48.590;8.866;2023-07-20T08:55:19;29.00;54.30
18291;DHT22;9271;48.590;8.866;2023-07-20T08:57:50;30.50;50.40
18291;DHT22;9271;48.590;8.866;2023-07-20T09:00:19;32.30;46.60
18291;DHT22;9271;48.590;8.866;2023-07-20T09:02:48;30.50;48.30
18291;DHT22;9271;48.590;8.866;2023-07-20T09:05:16;29.40;46.30
18291;DHT22;9271;48.590;8.866;2023-07-20T09:07:43;27.30;51.20
18291;DHT22;9271;48.590;8.866;2023-07-20T09:10:10;28.10;48.60
18291;DHT22;9271;48.590;8.866;2023-07-20T09:12:38;29.00;45.30
18291;DHT22;9271;48.590;8.866;2023-07-20T09:15:06;29.60;45.40
18291;DHT22;9271;48.590;8.866;2023-07-20T09:17:34;30.50;43.70
18291;DHT22;9271;48.590;8.866;2023-07-20T09:20:02;30.20;42.50
18291;DHT22;9271;48.590;8.866;2023-07-20T09:22:33;30.40;42.60
18291;DHT22;9271;48.590;8.866;2023-07-20T09:25:00;30.60;42.30
18291;DHT22;9271;48.590;8.866;2023-07-20T09:27:34;29.80;42.20
18291;DHT22;9271;48.590;8.866;2023-07-20T09:30:03;29.10;44.00
18291;DHT22;9271;48.590;8.866;2023-07-20T09:32:30;29.90;43.50
18291;DHT22;9271;48.590;8.866;2023-07-20T09:34:58;29.20;44.20
18291;DHT22;9271;48.590;8.866;2023-07-20T09:37:25;26.60;48.60
18291;DHT22;9271;48.590;8.866;2023-07-20T09:39:52;25.60;49.50
18291;DHT22;9271;48.590;8.866;2023-07-20T09:42:22;26.40;50.50
18291;DHT22;9271;48.590;8.866;2023-07-20T09:44:50;28.90;44.70
18291;DHT22;9271;48.590;8.866;2023-07-20T09:47:21;30.60;41.20
18291;DHT22;9271;48.590;8.866;2023-07-20T09:49:48;32.00;41.20
18291;DHT22;9271;48.590;8.866;2023-07-20T09:52:16;31.30;40.90
18291;DHT22;9271;48.590;8.866;2023-07-20T09:54:45;31.40;40.00
18291;DHT22;9271;48.590;8.866;2023-07-20T09:57:12;29.80;41.10
18291;DHT22;9271;48.590;8.866;2023-07-20T09:59:40;29.40;41.90
18291;DHT22;9271;48.590;8.866;2023-07-20T10:02:13;29.30;42.70
18291;DHT22;9271;48.590;8.866;2023-07-20T10:04:41;31.10;40.60
18291;DHT22;9271;48.590;8.866;2023-07-20T10:07:10;33.90;39.90
18291;DHT22;9271;48.590;8.866;2023-07-20T10:09:40;34.10;34.10
18291;DHT22;9271;48.590;8.866;2023-07-20T10:12:09;33.00;35.80
18291;DHT22;9271;48.590;8.866;2023-07-20T10:14:40;32.80;35.90
18291;DHT22;9271;48.590;8.866;2023-07-20T10:17:07;32.60;35.80
18291;DHT22;9271;48.590;8.866;2023-07-20T10:19:42;30.80;37.40
18291;DHT22;9271;48.590;8.866;2023-07-20T10:22:13;31.70;37.50
18291;DHT22;9271;48.590;8.866;2023-07-20T10:24:45;33.00;32.50
18291;DHT22;9271;48.590;8.866;2023-07-20T10:27:12;33.70;34.10
18291;DHT22;9271;48.590;8.866;2023-07-20T10:29:40;33.90;32.30
18291;DHT22;9271;48.590;8.866;2023-07-20T10:32:08;33.90;32.30
18291;DHT22;9271;48.590;8.866;2023-07-20T10:34:35;33.40;32.50
18291;DHT22;9271;48.590;8.866;2023-07-20T10:37:02;34.20;34.00
18291;DHT22;9271;48.590;8.866;2023-07-20T10:39:31;33.30;33.10
18291;DHT22;9271;48.590;8.866;2023-07-20T10:42:03;32.20;33.60
18291;DHT22;9271;48.590;8.866;2023-07-20T10:44:33;33.50;33.50
18291;DHT22;9271;48.590;8.866;2023-07-20T10:47:01;35.10;31.80
18291;DHT22;9271;48.590;8.866;2023-07-20T10:49:28;34.40;31.80
18291;DHT22;9271;48.590;8.866;2023-07-20T10:51:59;34.70;32.60
18291;DHT22;9271;48.590;8.866;2023-07-20T10:54:34;35.90;31.90
18291;DHT22;9271;48.590;8.866;2023-07-20T10:57:23;37.70;31.30
18291;DHT22;9271;48.590;8.866;2023-07-20T10:59:50;40.30;30.00
18291;DHT22;9271;48.590;8.866;2023-07-20T11:02:18;40.50;27.00
18291;DHT22;9271;48.590;8.866;2023-07-20T11:04:46;41.80;25.20
18291;DHT22;9271;48.590;8.866;2023-07-20T11:07:15;42.70;24.70
18291;DHT22;9271;48.590;8.866;2023-07-20T11:09:43;44.10;24.70
18291;DHT22;9271;48.590;8.866;2023-07-20T11:12:10;42.90;24.80
18291;DHT22;9271;48.590;8.866;2023-07-20T11:14:41;42.00;22.90
18291;DHT22;9271;48.590;8.866;2023-07-20T11:17:12;37.80;26.00
18291;DHT22;9271;48.590;8.866;2023-07-20T11:19:40;37.30;28.90
18291;DHT22;9271;48.590;8.866;2023-07-20T11:22:07;37.40;27.90
18291;DHT22;9271;48.590;8.866;2023-07-20T11:24:34;38.30;26.60
18291;DHT22;9271;48.590;8.866;2023-07-20T11:27:04;38.40;25.60
18291;DHT22;9271;48.590;8.866;2023-07-20T11:29:31;37.60;25.60
18291;DHT22;9271;48.590;8.866;2023-07-20T11:31:59;38.60;25.30
18291;DHT22;9271;48.590;8.866;2023-07-20T11:34:27;40.00;24.10
18291;DHT22;9271;48.590;8.866;2023-07-20T11:36:53;39.80;23.70
18291;DHT22;9271;48.590;8.866;2023-07-20T11:39:22;39.10;24.50
18291;DHT22;9271;48.590;8.866;2023-07-20T11:41:52;37.00;28.60
18291;DHT22;9271;48.590;8.866;2023-07-20T11:44:19;36.60;28.30
18291;DHT22;9271;48.590;8.866;2023-07-20T11:47:00;35.40;27.60
18291;DHT22;9271;48.590;8.866;2023-07-20T11:49:29;37.00;29.90
18291;DHT22;9271;48.590;8.866;2023-07-20T11:51:56;39.30;26.00
18291;DHT22;9271;48.590;8.866;2023-07-20T11:54:24;37.80;26.10
18291;DHT22;9271;48.590;8.866;2023-07-20T11:56:53;37.80;27.50
18291;DHT22;9271;48.590;8.866;2023-07-20T11:59:20;37.50;27.00
18291;DHT22;9271;48.590;8.866;2023-07-20T12:01:47;36.20;27.40
18291;DHT22;9271;48.590;8.866;2023-07-20T12:04:15;36.20;28.70
18291;DHT22;9271;48.590;8.866;2023-07-20T12:06:42;38.40;27.50
18291;DHT22;9271;48.590;8.866;2023-07-20T12:09:13;41.00;25.00
18291;DHT22;9271;48.590;8.866;2023-07-20T12:11:42;42.80;25.40
18291;DHT22;9271;48.590;8.866;2023-07-20T12:14:09;42.90;22.40
18291;DHT22;9271;48.590;8.866;2023-07-20T12:16:37;40.30;23.90
18291;DHT22;9271;48.590;8.866;2023-07-20T12:19:05;38.30;25.50
18291;DHT22;9271;48.590;8.866;2023-07-20T12:21:36;38.90;24.80
18291;DHT22;9271;48.590;8.866;2023-07-20T12:24:04;38.50;24.00
18291;DHT22;9271;48.590;8.866;2023-07-20T12:26:31;35.90;25.20
18291;DHT22;9271;48.590;8.866;2023-07-20T12:28:58;34.60;26.60
18291;DHT22;9271;48.590;8.866;2023-07-20T12:31:26;33.90;27.60
18291;DHT22;9271;48.590;8.866;2023-07-20T12:33:55;35.50;29.90
18291;DHT22;9271;48.590;8.866;2023-07-20T12:36:21;38.30;25.70
18291;DHT22;9271;48.590;8.866;2023-07-20T12:38:50;40.10;25.10
18291;DHT22;9271;48.590;8.866;2023-07-20T12:41:17;41.50;23.90
18291;DHT22;9271;48.590;8.866;2023-07-20T12:43:44;41.70;22.80
18291;DHT22;9271;48.590;8.866;2023-07-20T12:46:12;41.50;23.60
18291;DHT22;9271;48.590;8.866;2023-07-20T12:48:40;42.40;24.00
18291;DHT22;9271;48.590;8.866;2023-07-20T12:51:07;42.00;21.90
18291;DHT22;9271;48.590;8.866;2023-07-20T12:53:34;42.10;23.00
18291;DHT22;9271;48.590;8.866;2023-07-20T12:56:03;42.20;22.90
18291;DHT22;9271;48.590;8.866;2023-07-20T12:58:30;42.80;21.20
18291;DHT22;9271;48.590;8.866;2023-07-20T13:00:56;43.20;22.70
18291;DHT22;9271;48.590;8.866;2023-07-20T13:03:23;42.90;21.10
18291;DHT22;9271;48.590;8.866;2023-07-20T13:05:50;43.20;21.60
18291;DHT22;9271;48.590;8.866;2023-07-20T13:08:17;43.20;20.70
18291;DHT22;9271;48.590;8.866;2023-07-20T13:10:45;42.80;20.20
18291;DHT22;9271;48.590;8.866;2023-07-20T13:13:13;40.10;23.30
18291;DHT22;9271;48.590;8.866;2023-07-20T13:15:43;38.50;23.60
18291;DHT22;9271;48.590;8.866;2023-07-20T13:18:11;36.50;26.70
18291;DHT22;9271;48.590;8.866;2023-07-20T13:20:38;33.90;27.20
18291;DHT22;9271;48.590;8.866;2023-07-20T13:23:06;32.60;29.40
18291;DHT22;9271;48.590;8.866;2023-07-20T13:25:32;34.80;29.40
18291;DHT22;9271;48.590;8.866;2023-07-20T13:27:59;37.30;27.70
18291;DHT22;9271;48.590;8.866;2023-07-20T13:30:27;37.50;25.30
18291;DHT22;9271;48.590;8.866;2023-07-20T13:32:54;38.10;27.70
18291;DHT22;9271;48.590;8.866;2023-07-20T13:35:20;38.90;26.40
18291;DHT22;9271;48.590;8.866;2023-07-20T13:37:47;39.90;24.60
18291;DHT22;9271;48.590;8.866;2023-07-20T13:40:15;41.10;25.00
18291;DHT22;9271;48.590;8.866;2023-07-20T13:42:44;41.50;23.60
18291;DHT22;9271;48.590;8.866;2023-07-20T13:45:10;39.90;25.10
18291;DHT22;9271;48.590;8.866;2023-07-20T13:47:38;38.70;25.00
18291;DHT22;9271;48.590;8.866;2023-07-20T13:50:06;38.20;26.30
18291;DHT22;9271;48.590;8.866;2023-07-20T13:52:33;36.70;25.80
18291;DHT22;9271;48.590;8.866;2023-07-20T13:55:00;34.90;28.20
18291;DHT22;9271;48.590;8.866;2023-07-20T13:57:27;33.70;29.80
18291;DHT22;9271;48.590;8.866;2023-07-20T13:59:53;35.00;28.30
18291;DHT22;9271;48.590;8.866;2023-07-20T14:02:20;36.40;27.90
18291;DHT22;9271;48.590;8.866;2023-07-20T14:04:48;38.10;27.20
18291;DHT22;9271;48.590;8.866;2023-07-20T14:07:15;39.10;25.00
18291;DHT22;9271;48.590;8.866;2023-07-20T14:09:41;39.60;24.60
18291;DHT22;9271;48.590;8.866;2023-07-20T14:12:09;39.90;24.20
18291;DHT22;9271;48.590;8.866;2023-07-20T14:14:37;39.60;24.90
18291;DHT22;9271;48.590;8.866;2023-07-20T14:17:04;39.70;25.70
18291;DHT22;9271;48.590;8.866;2023-07-20T14:19:31;39.90;24.60
18291;DHT22;9271;48.590;8.866;2023-07-20T14:21:59;39.70;24.90
18291;DHT22;9271;48.590;8.866;2023-07-20T14:24:26;39.90;24.60
18291;DHT22;9271;48.590;8.866;2023-07-20T14:26:53;39.50;24.40
18291;DHT22;9271;48.590;8.866;2023-07-20T14:29:20;39.20;25.60
18291;DHT22;9271;48.590;8.866;2023-07-20T14:31:46;38.90;26.40
18291;DHT22;9271;48.590;8.866;2023-07-20T14:34:16;38.20;26.60
18291;DHT22;9271;48.590;8.866;2023-07-20T14:36:43;37.50;27.40
18291;DHT22;9271;48.590;8.866;2023-07-20T14:39:11;37.50;27.70
18291;DHT22;9271;48.590;8.866;2023-07-20T14:41:37;37.70;25.80
18291;DHT22;9271;48.590;8.866;2023-07-20T14:44:04;37.70;27.10
18291;DHT22;9271;48.590;8.866;2023-07-20T14:46:31;36.60;26.80
18291;DHT22;9271;48.590;8.866;2023-07-20T14:48:57;36.00;27.70
18291;DHT22;9271;48.590;8.866;2023-07-20T14:51:24;36.20;28.10
18291;DHT22;9271;48.590;8.866;2023-07-20T14:53:51;36.30;25.70
18291;DHT22;9271;48.590;8.866;2023-07-20T14:56:19;35.10;26.60
18291;DHT22;9271;48.590;8.866;2023-07-20T14:58:45;32.90;29.50
18291;DHT22;9271;48.590;8.866;2023-07-20T15:01:12;33.50;29.60
18291;DHT22;9271;48.590;8.866;2023-07-20T15:03:39;33.50;29.70
18291;DHT22;9271;48.590;8.866;2023-07-20T15:06:10;32.70;29.30
18291;DHT22;9271;48.590;8.866;2023-07-20T15:08:37;33.20;30.40
18291;DHT22;9271;48.590;8.866;2023-07-20T15:11:04;33.60;29.60
18291;DHT22;9271;48.590;8.866;2023-07-20T15:13:32;31.70;30.90
18291;DHT22;9271;48.590;8.866;2023-07-20T15:15:58;31.40;34.10
18291;DHT22;9271;48.590;8.866;2023-07-20T15:18:25;31.30;32.80
18291;DHT22;9271;48.590;8.866;2023-07-20T15:20:51;31.30;33.70
18291;DHT22;9271;48.590;8.866;2023-07-20T15:23:19;31.60;32.60
18291;DHT22;9271;48.590;8.866;2023-07-20T15:25:45;32.30;32.10
18291;DHT22;9271;48.590;8.866;2023-07-20T15:28:12;31.70;31.60
18291;DHT22;9271;48.590;8.866;2023-07-20T15:30:40;30.80;34.40
18291;DHT22;9271;48.590;8.866;2023-07-20T15:33:07;31.20;34.10
18291;DHT22;9271;48.590;8.866;2023-07-20T15:35:34;31.80;33.80
18291;DHT22;9271;48.590;8.866;2023-07-20T15:38:00;32.10;32.80
18291;DHT22;9271;48.590;8.866;2023-07-20T15:40:27;32.60;32.10
18291;DHT22;9271;48.590;8.866;2023-07-20T15:42:54;32.70;31.80
18291;DHT22;9271;48.590;8.866;2023-07-20T15:45:20;32.60;31.70
18291;DHT22;9271;48.590;8.866;2023-07-20T15:47:49;32.60;31.40